Terminal Aerodrome Forecast
Issued by NWS

Home | Current Version | Previous Version | Text Only | Print | Product List | Glossary On
Versions: 1 2 3 4 5 6 7 8 9 10 11 12 13 14 15 16 17
000
FTUS44 KLZK 162336
TAFLLQ
TAF
KLLQ 162336Z 1700/1724 19005KT P6SM SCT040 OVC250
     FM170600 19007KT P6SM OVC080
     FM171200 21011KT P6SM OVC050
      TEMPO 1712/1716 4SM TSRA BR OVC025CB
     FM171600 23012G20KT 5SM SHRA BR OVC040=

USA.gov is the U.S. government's official web portal to all federal, state and local government web resources and services.